Time;durP1;ratioP1;P1;durP2;ratioP2;P2;SDS_P1;SDS_P2;PMS_P1;PMS_P2;Temp;Humidity;BMP_temperature;BMP_pressure;BME280_temperature;BME280_humidity;BME280_pressure;Samples;Min_cycle;Max_cycle;Signal;HPM_P1;HPM_P2
2022/12/17 13:06:09;;;;;;;47.50;23.47;;;-1.50;99.90;;;;;;4975068;28;20215;-60
2022/12/17 13:08:35;;;;;;;43.77;21.30;;;-1.50;99.90;;;;;;4977518;28;21125;-60
2022/12/17 13:11:35;;;;;;;41.57;21.60;;;-1.60;99.90;;;;;;4977431;28;20296;-62
2022/12/17 13:14:10;;;;;;;45.20;21.90;;;-1.60;99.90;;;;;;4967686;28;20227;-60
2022/12/17 13:17:01;;;;;;;47.60;24.97;;;-1.50;99.90;;;;;;4977063;28;20568;-63
2022/12/17 13:19:38;;;;;;;57.80;25.90;;;-1.30;99.90;;;;;;4972695;28;20641;-63
2022/12/17 13:22:16;;;;;;;46.87;22.77;;;-1.30;99.90;;;;;;4977387;28;20201;-62
2022/12/17 13:24:42;;;;;;;50.10;24.10;;;-1.20;99.90;;;;;;4976877;28;20200;-63
2022/12/17 13:27:38;;;;;;;43.50;23.23;;;-1.10;99.90;;;;;;4977362;28;20204;-64
2022/12/17 13:30:16;;;;;;;42.73;23.43;;;-1.10;99.90;;;;;;4976673;28;20196;-60
2022/12/17 13:33:07;;;;;;;42.30;23.20;;;-1.20;99.90;;;;;;4974627;28;20212;-61
2022/12/17 13:35:54;;;;;;;47.13;22.97;;;-1.40;99.90;;;;;;4977142;28;20236;-60
2022/12/17 13:38:57;;;;;;;46.60;23.03;;;-1.40;99.90;;;;;;4976563;28;20253;-59
2022/12/17 13:41:32;;;;;;;45.07;21.97;;;-1.50;99.90;;;;;;4976017;28;20202;-60
2022/12/17 13:44:19;;;;;;;47.40;24.07;;;-1.40;99.90;;;;;;4976426;28;20201;-60
2022/12/17 13:46:47;;;;;;;41.63;21.57;;;-1.40;99.90;;;;;;4976489;28;20211;-61
2022/12/17 13:49:21;;;;;;;41.80;22.33;;;-1.50;99.90;;;;;;4976431;28;20201;-62
2022/12/17 13:51:47;;;;;;;41.70;22.80;;;-1.50;99.90;;;;;;4975403;28;20280;-61
2022/12/17 13:54:18;;;;;;;44.20;21.47;;;-1.60;99.90;;;;;;4975003;28;20206;-65
2022/12/17 13:56:44;;;;;;;48.27;22.67;;;-1.60;99.90;;;;;;4977265;28;20522;-61
2022/12/17 13:59:23;;;;;;;54.03;25.20;;;-1.60;99.90;;;;;;4976979;28;20201;-61
2022/12/17 14:01:51;;;;;;;44.37;20.97;;;-1.50;99.90;;;;;;4975175;28;20245;-61
2022/12/17 14:04:26;;;;;;;43.03;23.07;;;-1.40;99.90;;;;;;4976941;28;20197;-60
2022/12/17 14:06:54;;;;;;;45.00;21.73;;;-1.30;99.90;;;;;;4976060;28;20500;-61
2022/12/17 14:09:22;;;;;;;44.50;21.07;;;-1.20;99.90;;;;;;4974002;28;20587;-59
2022/12/17 14:14:43;;;;;;;51.53;23.63;;;-1.10;99.90;;;;;;4974556;28;20221;-60
2022/12/17 14:17:23;;;;;;;50.27;24.53;;;-1.20;99.90;;;;;;4976498;28;20188;-70
2022/12/17 14:20:02;;;;;;;50.47;23.50;;;-1.30;99.90;;;;;;4973753;28;20216;-59
2022/12/17 14:22:36;;;;;;;50.73;23.20;;;-1.30;99.90;;;;;;4975525;28;20230;-62
2022/12/17 14:25:03;;;;;;;47.20;22.13;;;-1.50;99.90;;;;;;4973967;28;20675;-59
2022/12/17 14:27:35;;;;;;;48.93;23.80;;;-1.60;99.90;;;;;;4975724;28;20194;-60
2022/12/17 14:30:47;;;;;;;46.20;23.73;;;-1.60;99.90;;;;;;4975607;28;20797;-59
2022/12/17 14:33:31;;;;;;;48.03;22.47;;;-1.60;99.90;;;;;;4973414;28;20212;-59
2022/12/17 14:36:08;;;;;;;52.73;25.03;;;-1.60;99.90;;;;;;4975665;28;20203;-60
2022/12/17 14:38:34;;;;;;;47.27;22.80;;;-1.60;99.90;;;;;;4975875;28;20589;-59
2022/12/17 14:42:24;;;;;;;40.47;20.77;;;-1.70;99.90;;;;;;4975732;28;20209;-58
2022/12/17 14:43:56;;;;;;;43.93;24.00;;;-1.80;99.90;;;;;;4975035;28;20204;-59
2022/12/17 14:46:21;;;;;;;49.70;22.43;;;-1.70;99.90;;;;;;4974019;28;20206;-60
2022/12/17 14:49:01;;;;;;;45.63;22.37;;;-1.70;99.90;;;;;;4974729;28;20201;-60
2022/12/17 14:51:34;;;;;;;43.67;22.57;;;-1.80;99.90;;;;;;4971843;28;20756;-61
2022/12/17 14:54:19;;;;;;;47.30;22.20;;;-1.70;99.90;;;;;;4974695;28;20213;-58
2022/12/17 14:56:47;;;;;;;55.03;23.70;;;-1.70;99.90;;;;;;4973071;28;20353;-60
2022/12/17 14:59:33;;;;;;;60.40;26.10;;;-1.70;99.90;;;;;;4975333;28;20198;-60
2022/12/17 15:02:04;;;;;;;49.03;24.03;;;-1.60;99.90;;;;;;4974462;28;20201;-59
2022/12/17 15:04:31;;;;;;;55.17;24.83;;;-1.40;99.90;;;;;;4974247;28;20197;-59
2022/12/17 15:06:57;;;;;;;49.40;23.40;;;-1.30;99.90;;;;;;4970835;28;20851;-58
2022/12/17 15:09:23;;;;;;;47.97;24.57;;;-1.30;99.90;;;;;;4975107;28;20669;-60
2022/12/17 15:11:48;;;;;;;51.97;24.53;;;-1.20;99.90;;;;;;4975187;28;20674;-61
2022/12/17 15:14:14;;;;;;;49.00;24.67;;;-1.20;99.90;;;;;;4972071;28;20256;-59
2022/12/17 15:16:40;;;;;;;52.43;24.90;;;-1.20;99.90;;;;;;4977184;28;20197;-58
2022/12/17 15:19:05;;;;;;;45.80;22.80;;;-1.10;99.90;;;;;;4976526;28;20571;-61
2022/12/17 15:21:31;;;;;;;43.43;24.00;;;-1.10;99.90;;;;;;4978663;28;20254;-60
2022/12/17 15:23:56;;;;;;;48.00;25.97;;;-1.10;99.90;;;;;;4978081;28;20645;-59
2022/12/17 15:26:22;;;;;;;46.43;24.20;;;-1.10;99.90;;;;;;4978239;28;20483;-60
2022/12/17 15:28:47;;;;;;;48.37;22.17;;;-1.20;99.90;;;;;;4978490;28;20589;-59
2022/12/17 15:31:13;;;;;;;49.10;22.93;;;-1.30;99.90;;;;;;4978450;28;20201;-60
2022/12/17 15:33:40;;;;;;;48.60;22.73;;;-1.30;99.90;;;;;;4977470;28;20275;-60
2022/12/17 15:36:06;;;;;;;49.97;23.80;;;-1.60;99.90;;;;;;4978114;28;20213;-59
2022/12/17 15:38:32;;;;;;;45.90;24.10;;;-1.70;99.90;;;;;;4978484;28;20220;-60
2022/12/17 15:43:09;;;;;;;52.93;23.37;;;-1.60;99.90;;;;;;4976346;28;20201;-60
2022/12/17 15:43:48;;;;;;;45.17;22.13;;;-1.60;99.90;;;;;;4974999;28;20292;-60
2022/12/17 15:46:14;;;;;;;42.93;22.40;;;-1.70;99.90;;;;;;4977937;28;20213;-59
2022/12/17 15:48:39;;;;;;;35.13;17.90;;;-1.70;99.90;;;;;;4977747;28;20262;-60
2022/12/17 15:51:05;;;;;;;38.13;19.53;;;-1.60;99.90;;;;;;4976854;28;20205;-61
2022/12/17 15:53:30;;;;;;;40.10;19.40;;;-1.70;99.90;;;;;;4978095;28;20591;-60
2022/12/17 15:56:00;;;;;;;36.20;20.33;;;-1.70;99.90;;;;;;4978052;28;20262;-58
2022/12/17 15:58:25;;;;;;;34.67;18.47;;;-1.70;99.90;;;;;;4977544;28;20278;-59
2022/12/17 16:00:51;;;;;;;36.13;17.90;;;-1.70;99.90;;;;;;4978283;28;20188;-60
2022/12/17 16:03:17;;;;;;;38.80;19.30;;;-1.70;99.90;;;;;;4976147;28;20197;-60
2022/12/17 16:05:42;;;;;;;36.40;19.27;;;-1.70;99.90;;;;;;4978262;28;20618;-60
2022/12/17 16:08:08;;;;;;;30.83;17.60;;;-1.80;99.90;;;;;;4977912;28;20846;-60
2022/12/17 16:10:34;;;;;;;31.47;16.83;;;-1.90;99.90;;;;;;4977904;28;20293;-60
2022/12/17 16:12:59;;;;;;;34.83;19.37;;;-2.00;99.90;;;;;;4977536;28;20631;-59
2022/12/17 16:15:25;;;;;;;42.53;20.13;;;-2.00;99.90;;;;;;4976205;28;20201;-59
2022/12/17 16:17:50;;;;;;;44.03;20.43;;;-1.90;99.90;;;;;;4976096;28;20189;-60
2022/12/17 16:20:16;;;;;;;41.33;19.50;;;-1.80;99.90;;;;;;4978899;28;20536;-60
2022/12/17 16:22:41;;;;;;;46.10;19.93;;;-1.70;99.90;;;;;;4978535;28;20331;-60
2022/12/17 16:25:07;;;;;;;40.33;19.97;;;-1.60;99.90;;;;;;4978661;28;20197;-60
2022/12/17 16:27:34;;;;;;;48.77;22.70;;;-1.60;99.90;;;;;;4976367;28;20511;-61
2022/12/17 16:30:02;;;;;;;41.20;21.13;;;-1.60;99.90;;;;;;4976753;28;20200;-62
2022/12/17 16:32:29;;;;;;;44.63;21.43;;;-1.60;99.90;;;;;;4980031;28;20224;-61
2022/12/17 16:34:55;;;;;;;41.23;20.93;;;-1.50;99.90;;;;;;4972509;28;20950;-61
2022/12/17 16:37:20;;;;;;;40.80;20.37;;;-1.50;99.90;;;;;;4978238;28;20304;-59
2022/12/17 16:39:46;;;;;;;40.53;20.00;;;-1.40;99.90;;;;;;4978540;28;20197;-60
2022/12/17 16:42:12;;;;;;;40.83;22.43;;;-1.40;99.90;;;;;;4976419;28;20287;-60
2022/12/17 16:44:37;;;;;;;40.17;19.50;;;-1.50;99.90;;;;;;4976840;28;20363;-60
2022/12/17 16:47:02;;;;;;;44.83;22.50;;;-1.50;99.90;;;;;;4977488;28;20204;-60
2022/12/17 16:49:28;;;;;;;40.43;22.33;;;-1.60;99.90;;;;;;4976850;28;20520;-60
2022/12/17 16:51:55;;;;;;;47.13;21.10;;;-1.70;99.90;;;;;;4977419;28;20290;-59
2022/12/17 16:54:24;;;;;;;46.13;22.80;;;-1.70;99.90;;;;;;4975477;28;20697;-60
2022/12/17 16:56:51;;;;;;;35.07;21.33;;;-1.70;99.90;;;;;;4976896;28;20209;-60
2022/12/17 16:59:17;;;;;;;52.27;23.77;;;-1.80;99.90;;;;;;4975710;28;20251;-60
2022/12/17 17:01:45;;;;;;;45.20;22.40;;;-1.80;99.90;;;;;;4977270;28;20194;-61
2022/12/17 17:04:12;;;;;;;44.93;22.20;;;-1.90;99.90;;;;;;4975636;28;20324;-62
2022/12/17 17:06:43;;;;;;;42.50;20.47;;;-2.00;99.90;;;;;;4976290;28;20945;-60
2022/12/17 17:09:10;;;;;;;44.80;20.50;;;-2.10;99.90;;;;;;4975823;28;20195;-62
2022/12/17 17:11:36;;;;;;;45.93;22.10;;;-2.20;99.90;;;;;;4975477;28;20229;-60
2022/12/17 17:14:01;;;;;;;48.10;22.30;;;-2.20;99.90;;;;;;4974007;28;20312;-61
2022/12/17 17:16:27;;;;;;;47.77;23.77;;;-2.20;99.90;;;;;;4976831;28;20201;-61
2022/12/17 17:18:53;;;;;;;49.60;24.23;;;-2.20;99.90;;;;;;4976944;28;20204;-60
2022/12/17 17:21:18;;;;;;;50.37;24.73;;;-2.10;99.90;;;;;;4976798;28;20210;-60
2022/12/17 17:23:49;;;;;;;57.80;28.90;;;-2.00;99.90;;;;;;4975992;28;20215;-62
2022/12/17 17:26:16;;;;;;;96.50;44.33;;;-2.00;99.90;;;;;;4974458;28;20236;-61
2022/12/17 17:28:43;;;;;;;49.40;24.67;;;-1.80;99.90;;;;;;4975254;28;20674;-60
2022/12/17 17:31:11;;;;;;;45.77;22.80;;;-1.70;99.90;;;;;;4975797;28;20205;-60
2022/12/17 17:33:45;;;;;;;51.73;23.97;;;-1.70;99.90;;;;;;4974474;28;20213;-60
2022/12/17 17:36:13;;;;;;;48.03;24.73;;;-1.80;99.90;;;;;;4973573;28;20201;-59
2022/12/17 17:38:40;;;;;;;42.80;22.23;;;-1.80;99.90;;;;;;4974845;28;20761;-60
2022/12/17 17:41:07;;;;;;;37.00;20.40;;;-1.90;99.90;;;;;;4976509;28;20197;-61
2022/12/17 17:43:33;;;;;;;44.50;24.03;;;-2.00;99.90;;;;;;4975517;28;20754;-61
2022/12/17 17:46:16;;;;;;;39.27;20.93;;;-2.10;99.90;;;;;;4975485;28;20205;-60
2022/12/17 17:48:44;;;;;;;70.07;35.10;;;-2.20;99.90;;;;;;4973675;28;20688;-60
2022/12/17 17:51:19;;;;;;;188.27;73.73;;;-2.10;99.90;;;;;;4976655;28;20944;-60
2022/12/17 17:53:46;;;;;;;50.27;27.13;;;-2.10;99.90;;;;;;4975854;28;20220;-60
2022/12/17 17:56:16;;;;;;;67.23;33.50;;;-1.90;99.90;;;;;;4975405;28;20338;-60
2022/12/17 17:58:45;;;;;;;45.27;23.57;;;-1.90;99.90;;;;;;4975495;28;20204;-61
2022/12/17 18:01:13;;;;;;;74.50;35.27;;;-1.90;99.90;;;;;;4977323;28;20334;-60
2022/12/17 18:03:39;;;;;;;49.13;26.17;;;-1.80;99.90;;;;;;4984457;28;20223;-62
2022/12/17 18:06:08;;;;;;;49.03;24.50;;;-1.60;99.90;;;;;;4981667;28;20209;-61
2022/12/17 18:08:35;;;;;;;55.57;26.63;;;-1.60;99.90;;;;;;4987708;28;20205;-62
2022/12/17 18:11:02;;;;;;;49.47;25.90;;;-1.50;99.90;;;;;;4985758;28;20201;-62
2022/12/17 18:16:13;;;;;;;44.63;23.80;;;-1.40;99.90;;;;;;4981945;28;20214;-62
2022/12/17 18:18:38;;;;;;;47.10;22.00;;;-1.40;99.90;;;;;;4986403;28;20216;-60
2022/12/17 18:21:06;;;;;;;48.13;24.97;;;-1.30;99.90;;;;;;4982760;28;20278;-61
2022/12/17 18:23:32;;;;;;;43.33;23.47;;;-1.50;99.90;;;;;;4984909;28;20298;-61
2022/12/17 18:26:19;;;;;;;41.97;20.90;;;-1.50;99.90;;;;;;4983628;28;20652;-60
2022/12/17 18:28:45;;;;;;;36.90;22.07;;;-1.70;99.90;;;;;;4980888;28;20218;-62
2022/12/17 18:31:13;;;;;;;36.70;21.17;;;-1.80;99.90;;;;;;4986266;28;21054;-62
2022/12/17 18:33:41;;;;;;;40.07;20.67;;;-1.90;99.90;;;;;;4985261;28;20216;-61
2022/12/17 18:36:12;;;;;;;38.17;20.20;;;-2.10;99.90;;;;;;4982839;28;20675;-62
2022/12/17 18:38:38;;;;;;;36.30;20.53;;;-2.10;99.90;;;;;;4985716;28;20196;-63
2022/12/17 18:43:21;;;;;;;41.40;20.40;;;-2.20;99.90;;;;;;4983573;28;20691;-62
2022/12/17 18:43:51;;;;;;;42.13;20.93;;;-2.30;99.90;;;;;;4985162;28;20208;-61
2022/12/17 18:46:16;;;;;;;38.37;21.27;;;-2.30;99.90;;;;;;4985525;28;20212;-59
2022/12/17 18:48:42;;;;;;;39.33;20.97;;;-2.40;99.90;;;;;;4984377;28;20742;-61
2022/12/17 18:51:07;;;;;;;46.33;23.27;;;-2.40;99.90;;;;;;4984636;28;20232;-62
2022/12/17 18:53:33;;;;;;;36.13;21.57;;;-2.40;99.90;;;;;;4984067;28;20243;-61
2022/12/17 18:56:07;;;;;;;45.17;23.03;;;-2.30;99.90;;;;;;4984533;28;21732;-62
2022/12/17 18:58:32;;;;;;;39.77;21.00;;;-2.30;99.90;;;;;;4977202;28;20208;-61
2022/12/17 19:00:58;;;;;;;34.33;20.33;;;-2.20;99.90;;;;;;4974945;28;20185;-59
2022/12/17 19:03:23;;;;;;;36.63;20.77;;;-2.30;99.90;;;;;;4975983;28;20527;-60
2022/12/17 19:05:48;;;;;;;33.17;18.07;;;-2.30;99.90;;;;;;4973717;28;20538;-65
2022/12/17 19:08:14;;;;;;;41.67;20.80;;;-2.30;99.90;;;;;;4975202;28;20239;-60
2022/12/17 19:10:41;;;;;;;44.73;23.47;;;-2.20;99.90;;;;;;4973448;28;20655;-61
2022/12/17 19:13:06;;;;;;;31.07;15.47;;;-2.20;99.90;;;;;;4974162;28;20246;-61
2022/12/17 19:15:34;;;;;;;46.93;22.93;;;-2.20;99.90;;;;;;4973487;28;20579;-60
2022/12/17 19:17:59;;;;;;;39.90;20.23;;;-2.40;99.90;;;;;;4974609;28;20287;-61
2022/12/17 19:20:25;;;;;;;36.90;20.00;;;-2.60;99.90;;;;;;4975961;28;20289;-62
2022/12/17 19:22:50;;;;;;;38.23;20.70;;;-2.60;99.90;;;;;;4975113;28;20282;-62
2022/12/17 19:25:16;;;;;;;38.83;19.57;;;-2.70;99.90;;;;;;4975771;28;20625;-60
2022/12/17 19:27:41;;;;;;;36.03;19.30;;;-2.70;99.90;;;;;;4974727;28;20220;-61
2022/12/17 19:30:08;;;;;;;43.47;20.53;;;-2.80;99.90;;;;;;4973245;28;20208;-60
2022/12/17 19:32:33;;;;;;;44.87;20.63;;;-2.70;99.90;;;;;;4974477;28;20217;-62
2022/12/17 19:34:59;;;;;;;35.13;16.03;;;-2.70;99.90;;;;;;4974633;28;20362;-62
2022/12/17 19:37:24;;;;;;;42.40;20.27;;;-2.80;99.90;;;;;;4974919;28;20323;-62
2022/12/17 19:39:50;;;;;;;41.00;20.30;;;-2.70;99.90;;;;;;4974746;28;20292;-60
2022/12/17 19:42:26;;;;;;;41.73;20.87;;;-2.60;99.90;;;;;;4974610;28;20227;-60
2022/12/17 19:44:53;;;;;;;38.47;21.67;;;-2.50;99.90;;;;;;4972328;28;20208;-61
2022/12/17 19:47:21;;;;;;;45.43;21.57;;;-2.40;99.90;;;;;;4974857;28;20271;-61
2022/12/17 19:49:46;;;;;;;43.03;20.57;;;-2.40;99.90;;;;;;4975092;28;20200;-62
2022/12/17 19:52:12;;;;;;;43.97;21.00;;;-2.60;99.90;;;;;;4973611;28;20200;-62
2022/12/17 19:54:37;;;;;;;44.40;23.20;;;-2.70;99.90;;;;;;4975874;28;20209;-61
2022/12/17 19:57:03;;;;;;;42.77;21.40;;;-2.70;99.90;;;;;;4975521;28;20219;-62
2022/12/17 19:59:28;;;;;;;43.03;22.50;;;-2.60;99.90;;;;;;4974928;28;20201;-60
2022/12/17 20:01:54;;;;;;;42.03;19.33;;;-2.50;99.90;;;;;;4976295;28;20202;-61
2022/12/17 20:04:19;;;;;;;45.37;21.53;;;-2.50;99.90;;;;;;4979018;28;20287;-62
2022/12/17 20:06:45;;;;;;;41.60;20.03;;;-2.40;99.90;;;;;;4978156;28;20207;-62
2022/12/17 20:09:12;;;;;;;41.23;21.43;;;-2.40;99.90;;;;;;4977875;28;20729;-60
2022/12/17 20:11:38;;;;;;;41.03;20.67;;;-2.30;99.90;;;;;;4978733;28;20675;-61
2022/12/17 20:14:03;;;;;;;41.57;20.00;;;-2.30;99.90;;;;;;4979070;28;20220;-62
2022/12/17 20:16:32;;;;;;;37.90;18.63;;;-2.30;99.90;;;;;;4978361;28;20574;-62
2022/12/17 20:18:59;;;;;;;43.00;19.80;;;-2.20;99.90;;;;;;4976620;28;20209;-60
2022/12/17 20:21:25;;;;;;;36.03;19.63;;;-2.30;99.90;;;;;;4979313;28;20204;-61
2022/12/17 20:23:51;;;;;;;37.97;20.07;;;-2.30;99.90;;;;;;4978605;28;20209;-61
2022/12/17 20:26:17;;;;;;;36.30;17.00;;;-2.20;99.90;;;;;;4977185;28;20361;-61
2022/12/17 20:28:43;;;;;;;38.17;18.33;;;-2.30;99.90;;;;;;4978783;28;20284;-62
2022/12/17 20:31:09;;;;;;;36.80;19.77;;;-2.30;99.90;;;;;;4976992;28;20240;-61
2022/12/17 20:33:35;;;;;;;31.27;18.20;;;-2.40;99.90;;;;;;4978664;28;20216;-61
2022/12/17 20:36:13;;;;;;;40.47;20.17;;;-2.40;99.90;;;;;;4978593;28;20567;-62
2022/12/17 20:38:40;;;;;;;28.93;16.90;;;-2.40;99.90;;;;;;4976934;28;20232;-62
2022/12/17 20:41:11;;;;;;;34.23;16.93;;;-2.40;99.90;;;;;;4978276;28;20284;-61
2022/12/17 20:43:37;;;;;;;33.23;18.77;;;-2.40;99.90;;;;;;4978722;28;20229;-59
2022/12/17 20:46:03;;;;;;;34.23;17.13;;;-2.30;99.90;;;;;;4978622;28;20251;-62
2022/12/17 20:48:30;;;;;;;39.63;19.07;;;-2.30;99.90;;;;;;4977521;28;20259;-61
2022/12/17 20:50:55;;;;;;;37.47;17.50;;;-2.40;99.90;;;;;;4978960;28;20215;-60
2022/12/17 20:53:21;;;;;;;35.10;18.67;;;-2.40;99.90;;;;;;4978516;28;20208;-62
2022/12/17 20:55:46;;;;;;;36.83;18.00;;;-2.40;99.90;;;;;;4978102;28;20208;-60
2022/12/17 20:58:12;;;;;;;34.20;17.70;;;-2.40;99.90;;;;;;4978941;28;20271;-62
2022/12/17 21:00:39;;;;;;;32.47;16.93;;;-2.50;99.90;;;;;;4977353;28;20196;-63
2022/12/17 21:03:05;;;;;;;37.13;18.30;;;-2.50;99.90;;;;;;4976489;28;20216;-62
2022/12/17 21:05:34;;;;;;;43.40;21.23;;;-2.60;99.90;;;;;;4980074;28;20201;-63
2022/12/17 21:07:59;;;;;;;38.53;20.43;;;-2.60;99.90;;;;;;4978176;28;20654;-61
2022/12/17 21:10:25;;;;;;;34.30;18.17;;;-2.60;99.90;;;;;;4977904;28;20231;-62
2022/12/17 21:13:32;;;;;;;38.33;19.53;;;-2.60;99.90;;;;;;4977120;28;20220;-62
2022/12/17 21:15:39;;;;;;;36.33;19.70;;;-2.50;99.90;;;;;;4977123;28;20207;-62
2022/12/17 21:18:04;;;;;;;32.53;18.10;;;-2.40;99.90;;;;;;4978452;28;20216;-62
2022/12/17 21:20:30;;;;;;;37.67;18.93;;;-2.40;99.90;;;;;;4976286;28;20220;-61
2022/12/17 21:22:55;;;;;;;29.00;16.67;;;-2.40;99.90;;;;;;4977433;28;20300;-61
2022/12/17 21:25:21;;;;;;;30.90;17.27;;;-2.40;99.90;;;;;;4977180;28;20282;-62
2022/12/17 21:27:46;;;;;;;36.40;18.73;;;-2.40;99.90;;;;;;4977605;28;20212;-62
2022/12/17 21:30:12;;;;;;;28.07;16.27;;;-2.30;99.90;;;;;;4977199;28;20303;-61
2022/12/17 21:32:37;;;;;;;30.30;17.77;;;-2.30;99.90;;;;;;4977170;28;20239;-62
2022/12/17 21:35:03;;;;;;;32.13;17.03;;;-2.20;99.90;;;;;;4975193;28;20201;-60
2022/12/17 21:37:29;;;;;;;34.27;18.30;;;-2.20;99.90;;;;;;4976799;28;20238;-60
2022/12/17 21:39:54;;;;;;;32.13;17.90;;;-2.20;99.90;;;;;;4977057;28;20193;-58
2022/12/17 21:45:07;;;;;;;31.60;17.17;;;-2.30;99.90;;;;;;4977392;28;20678;-60
2022/12/17 21:47:36;;;;;;;33.97;20.27;;;-2.30;99.90;;;;;;4973985;28;20287;-62
2022/12/17 21:50:04;;;;;;;33.80;18.77;;;-2.20;99.90;;;;;;4975347;28;20192;-61
2022/12/17 21:52:30;;;;;;;33.07;17.93;;;-2.20;99.90;;;;;;4974935;28;20215;-62
2022/12/17 21:54:56;;;;;;;33.57;18.40;;;-2.20;99.90;;;;;;4975876;28;20196;-63
2022/12/17 21:57:21;;;;;;;33.53;17.53;;;-2.20;99.90;;;;;;4976885;28;20208;-63
2022/12/17 21:59:47;;;;;;;29.83;17.87;;;-2.20;99.90;;;;;;4976651;28;21395;-62
2022/12/17 22:02:15;;;;;;;31.70;18.53;;;-2.30;99.90;;;;;;4977095;28;20296;-63
2022/12/17 22:04:42;;;;;;;30.70;17.67;;;-2.40;99.90;;;;;;4975314;28;20200;-63
2022/12/17 22:07:07;;;;;;;44.03;19.90;;;-2.60;99.90;;;;;;4973602;28;20195;-63
2022/12/17 22:09:33;;;;;;;36.97;18.80;;;-2.70;99.90;;;;;;4976567;28;20192;-65
2022/12/17 22:14:46;;;;;;;40.87;19.53;;;-2.70;99.90;;;;;;4976759;28;20274;-62
2022/12/17 22:17:11;;;;;;;36.90;19.37;;;-2.80;99.90;;;;;;4975966;28;20205;-62
2022/12/17 22:19:37;;;;;;;31.00;18.13;;;-2.80;99.90;;;;;;4976386;28;20243;-62
2022/12/17 22:22:02;;;;;;;38.67;18.17;;;-2.80;99.90;;;;;;4976699;28;20865;-60
2022/12/17 22:24:28;;;;;;;36.37;19.40;;;-2.80;99.90;;;;;;4974298;28;20201;-62
2022/12/17 22:26:58;;;;;;;33.23;18.97;;;-2.90;99.90;;;;;;4975444;28;20209;-63
2022/12/17 22:34:54;;;;;;;34.70;19.90;;;-2.90;99.90;;;;;;4973730;28;20279;-63
2022/12/17 22:37:20;;;;;;;36.63;18.07;;;-2.90;99.90;;;;;;4975293;28;20251;-62
2022/12/17 22:39:45;;;;;;;31.63;16.93;;;-2.80;99.90;;;;;;4975783;28;20574;-63
2022/12/17 22:45:12;;;;;;;32.47;18.63;;;-2.70;99.90;;;;;;4917825;29;20249;-62
2022/12/17 22:47:37;;;;;;;38.03;19.47;;;-2.60;99.90;;;;;;4961614;28;20239;-63
2022/12/17 22:50:03;;;;;;;32.70;16.97;;;-2.60;99.90;;;;;;4973549;28;20204;-62
2022/12/17 22:52:28;;;;;;;32.83;17.07;;;-2.60;99.90;;;;;;4975218;28;20212;-61
2022/12/17 22:54:54;;;;;;;29.87;17.83;;;-2.60;99.90;;;;;;4975741;28;20200;-61
2022/12/17 22:57:19;;;;;;;34.37;16.27;;;-2.70;99.90;;;;;;4975439;28;20197;-63
2022/12/17 22:59:45;;;;;;;31.83;17.63;;;-2.80;99.90;;;;;;4974877;28;20246;-62
2022/12/17 23:02:10;;;;;;;31.47;16.73;;;-2.80;99.90;;;;;;4973688;28;20809;-61
2022/12/17 23:04:35;;;;;;;30.57;15.80;;;-2.90;99.90;;;;;;4975468;28;20201;-62
2022/12/17 23:07:01;;;;;;;25.83;16.77;;;-3.00;99.90;;;;;;4975919;28;20220;-63
2022/12/17 23:09:27;;;;;;;31.97;18.83;;;-3.00;99.90;;;;;;4977593;28;20208;-61
2022/12/17 23:11:52;;;;;;;34.47;18.13;;;-3.10;99.90;;;;;;4983357;28;20539;-60
2022/12/17 23:14:18;;;;;;;30.77;16.50;;;-3.10;99.90;;;;;;4979162;28;20679;-62
2022/12/17 23:16:44;;;;;;;38.63;20.07;;;-3.20;99.90;;;;;;4974500;28;20260;-62
2022/12/17 23:19:09;;;;;;;35.67;17.97;;;-3.30;99.90;;;;;;4976240;28;20208;-63
2022/12/17 23:21:36;;;;;;;33.27;18.10;;;-3.30;99.90;;;;;;4976115;28;20207;-63
2022/12/17 23:24:02;;;;;;;34.30;18.67;;;-3.40;99.90;;;;;;4976583;28;20236;-62
2022/12/17 23:26:30;;;;;;;37.57;19.10;;;-3.40;99.90;;;;;;4976146;28;20347;-63
2022/12/17 23:28:57;;;;;;;37.60;18.37;;;-3.30;99.90;;;;;;4978781;28;20202;-63
2022/12/17 23:31:25;;;;;;;35.77;18.20;;;-3.40;99.90;;;;;;4979311;28;20327;-64
2022/12/17 23:33:50;;;;;;;36.30;18.90;;;-3.40;99.90;;;;;;4976336;28;20236;-63
2022/12/17 23:36:19;;;;;;;36.03;18.27;;;-3.30;99.90;;;;;;4974829;28;20675;-64
2022/12/17 23:38:46;;;;;;;33.43;18.20;;;-3.20;99.90;;;;;;4977973;28;20220;-63
2022/12/17 23:41:15;;;;;;;31.50;16.93;;;-3.20;99.90;;;;;;4979850;28;20255;-64
2022/12/17 23:43:41;;;;;;;31.67;18.87;;;-3.20;99.90;;;;;;4979879;28;20232;-64
2022/12/17 23:46:08;;;;;;;33.00;18.10;;;-3.30;99.90;;;;;;4986460;28;20792;-62
2022/12/17 23:48:36;;;;;;;33.43;17.87;;;-3.30;99.90;;;;;;4989360;28;20196;-63
2022/12/17 23:51:02;;;;;;;30.07;17.67;;;-3.30;99.90;;;;;;4983848;28;20398;-62
2022/12/17 23:53:30;;;;;;;33.43;17.00;;;-3.30;99.90;;;;;;4987747;28;20336;-57
2022/12/17 23:56:14;;;;;;;34.80;18.73;;;-3.40;99.90;;;;;;4985546;28;20270;-57
2022/12/17 23:58:41;;;;;;;30.23;15.03;;;-3.40;99.90;;;;;;4989600;28;20208;-57
